createdAt,value
2023-01-17T00:02:47.961Z,-4.66
2023-01-17T00:08:08.873Z,-4.37
2023-01-17T00:13:11.131Z,-3.94
2023-01-17T00:18:13.518Z,-3.47
2023-01-17T00:23:40.174Z,-3.49
2023-01-17T00:28:43.567Z,-3.57
2023-01-17T00:33:45.695Z,-4.19
2023-01-17T00:38:47.854Z,-4.89
2023-01-17T00:44:08.537Z,-3.53
2023-01-17T00:49:29.206Z,-3.81
2023-01-17T00:54:49.951Z,-3.54
2023-01-17T01:00:10.673Z,-3.41
2023-01-17T01:05:32.993Z,-3.70
2023-01-17T01:10:54.252Z,-3.71
2023-01-17T01:16:16.525Z,-3.58
2023-01-17T01:21:37.359Z,-3.76
2023-01-17T01:26:57.935Z,-3.46
2023-01-17T01:32:18.628Z,-3.59
2023-01-17T01:37:20.815Z,-3.38
2023-01-17T01:42:23.129Z,-3.81
2023-01-17T01:47:35.369Z,-3.48
2023-01-17T01:52:43.932Z,-3.62
2023-01-17T01:57:49.133Z,-3.37
2023-01-17T02:02:52.399Z,-3.54
2023-01-17T02:08:03.849Z,-3.20
2023-01-17T02:13:06.733Z,-4.18
2023-01-17T02:18:31.071Z,-3.13
2023-01-17T02:23:55.148Z,-3.13
2023-01-17T02:29:22.326Z,-3.09
2023-01-17T02:34:41.901Z,-3.86
2023-01-17T02:40:10.283Z,-3.60
2023-01-17T02:45:17.935Z,-3.42
2023-01-17T02:50:24.315Z,-3.39
2023-01-17T02:55:54.498Z,-3.49
2023-01-17T03:01:18.019Z,-3.03
2023-01-17T03:06:23.257Z,-3.04
2023-01-17T03:11:25.552Z,-3.56
2023-01-17T03:16:32.665Z,-3.03
2023-01-17T03:21:35.020Z,-3.47
2023-01-17T03:26:37.423Z,-3.12
2023-01-17T03:31:39.664Z,-3.46
2023-01-17T03:36:41.993Z,-3.38
2023-01-17T03:41:44.240Z,-3.33
2023-01-17T03:46:46.470Z,-3.01
2023-01-17T03:51:48.844Z,-2.94
2023-01-17T03:56:51.137Z,-3.29
2023-01-17T04:01:53.489Z,-3.14
2023-01-17T04:06:56.018Z,-3.18
2023-01-17T04:11:58.344Z,-3.92
2023-01-17T04:17:01.669Z,-4.05
2023-01-17T04:22:04.128Z,-3.41
2023-01-17T04:27:06.428Z,-3.12
2023-01-17T04:32:08.715Z,-3.13
2023-01-17T04:37:11.075Z,-3.42
2023-01-17T04:42:13.270Z,-2.91
2023-01-17T04:47:15.553Z,-3.51
2023-01-17T04:52:19.995Z,-3.27
2023-01-17T04:57:22.215Z,-3.12
2023-01-17T05:02:24.513Z,-2.95
2023-01-17T05:07:26.796Z,-3.17
2023-01-17T05:12:29.124Z,-3.03
2023-01-17T05:17:31.369Z,-3.12
2023-01-17T05:22:33.596Z,-3.17
2023-01-17T05:27:36.190Z,-3.47
2023-01-17T05:32:41.381Z,-3.17
2023-01-17T05:37:49.411Z,-2.91
2023-01-17T05:42:53.557Z,-3.16
2023-01-17T05:47:57.026Z,-3.34
2023-01-17T05:53:01.687Z,-2.67
2023-01-17T05:58:04.625Z,-3.22
2023-01-17T06:03:06.867Z,-2.95
2023-01-17T06:08:09.222Z,-2.72
2023-01-17T06:13:14.533Z,-2.60
2023-01-17T06:18:18.199Z,-2.57
2023-01-17T06:23:21.027Z,-3.25
2023-01-17T06:28:23.915Z,-2.62
2023-01-17T06:33:26.238Z,-2.83
2023-01-17T06:38:30.173Z,-4.21
2023-01-17T06:44:37.251Z,-6.16
2023-01-17T06:50:13.848Z,-2.41
2023-01-17T06:55:16.336Z,-2.60
2023-01-17T07:00:25.554Z,-2.34
2023-01-17T07:05:28.801Z,-2.82
2023-01-17T07:10:31.084Z,-2.65
2023-01-17T07:15:33.377Z,-2.66
2023-01-17T07:20:35.716Z,-2.54
2023-01-17T07:25:38.001Z,-2.37
2023-01-17T07:30:40.747Z,-2.79
2023-01-17T07:35:43.283Z,-2.75
2023-01-17T07:40:46.355Z,-2.22
2023-01-17T07:45:52.367Z,-2.43
2023-01-17T07:50:55.739Z,-2.09
2023-01-17T07:56:04.956Z,-2.07
2023-01-17T08:01:09.650Z,-2.35
2023-01-17T08:06:23.959Z,-2.30
2023-01-17T08:11:26.415Z,-2.43
2023-01-17T08:16:30.029Z,-2.17
2023-01-17T08:21:32.499Z,-2.41
2023-01-17T08:26:34.787Z,-2.38
2023-01-17T08:31:37.329Z,-2.11
2023-01-17T08:36:39.723Z,-1.83
2023-01-17T08:41:41.939Z,-1.76
2023-01-17T08:46:44.444Z,-1.93
2023-01-17T08:51:46.816Z,-2.03
2023-01-17T08:56:50.034Z,-1.99
2023-01-17T09:01:52.792Z,-1.74
2023-01-17T09:06:55.060Z,-1.65
2023-01-17T09:11:57.357Z,-1.74
2023-01-17T09:16:59.784Z,-1.51
2023-01-17T09:22:06.967Z,-1.92
2023-01-17T09:27:09.428Z,-1.67
2023-01-17T09:32:17.505Z,-1.76
2023-01-17T09:37:19.801Z,-2.31
2023-01-17T09:42:37.325Z,-1.23
2023-01-17T09:47:44.391Z,-1.45
2023-01-17T09:52:47.522Z,-1.51
2023-01-17T09:57:58.639Z,-1.14
2023-01-17T10:03:24.102Z,-1.12
2023-01-17T10:08:33.733Z,-1.07
2023-01-17T10:13:55.167Z,-0.98
2023-01-17T10:19:15.469Z,-1.04
2023-01-17T10:24:42.442Z,-1.27
2023-01-17T10:29:46.334Z,-1.29
2023-01-17T10:34:51.555Z,-1.15
2023-01-17T10:39:56.591Z,-1.03
2023-01-17T10:45:14.414Z,-1.07
2023-01-17T10:50:18.458Z,-0.95
2023-01-17T10:55:45.861Z,-0.76
2023-01-17T11:01:16.209Z,-1.35
2023-01-17T11:06:25.923Z,-1.19
2023-01-17T11:11:31.203Z,-0.63
2023-01-17T11:16:34.185Z,-1.00
2023-01-17T11:21:38.544Z,-0.73
2023-01-17T11:26:48.267Z,-0.85
2023-01-17T11:31:50.391Z,-0.49
2023-01-17T11:37:10.689Z,-0.79
2023-01-17T11:42:38.480Z,-1.39
2023-01-17T11:47:40.760Z,-0.69
2023-01-17T11:52:43.605Z,-0.65
2023-01-17T11:57:50.593Z,-1.54
2023-01-17T12:03:30.143Z,-0.31
2023-01-17T12:08:51.533Z,-0.52
2023-01-17T12:14:06.123Z,-1.36
2023-01-17T12:19:39.155Z,-0.22
2023-01-17T12:24:47.490Z,-0.20
2023-01-17T12:30:11.333Z,-0.19
2023-01-17T12:35:25.536Z,-0.51
2023-01-17T12:40:35.850Z,-0.55
2023-01-17T12:45:46.363Z,-0.45
2023-01-17T12:50:57.648Z,-0.03
2023-01-17T12:56:17.014Z,-0.01
2023-01-17T13:01:29.922Z,0.02
2023-01-17T13:06:42.770Z,-0.20
2023-01-17T13:11:58.080Z,-0.71
2023-01-17T13:17:25.177Z,-0.12
2023-01-17T13:22:28.195Z,-0.24
2023-01-17T13:27:35.749Z,0.08
2023-01-17T13:32:55.115Z,-0.23
2023-01-17T13:38:07.834Z,0.14
2023-01-17T13:43:31.376Z,-0.18
2023-01-17T13:48:38.612Z,0.16
2023-01-17T13:53:40.906Z,0.17
2023-01-17T13:58:54.766Z,0.18
2023-01-17T14:04:06.454Z,-0.07
2023-01-17T14:09:08.739Z,0.19
2023-01-17T14:14:42.116Z,0.24
2023-01-17T14:19:48.350Z,0.21
2023-01-17T14:24:57.441Z,0.23
2023-01-17T14:30:04.107Z,0.22
2023-01-17T14:35:06.852Z,0.22
2023-01-17T14:40:22.552Z,-0.08
2023-01-17T14:45:28.446Z,0.16
2023-01-17T14:50:36.973Z,-0.01
2023-01-17T14:55:48.266Z,0.29
2023-01-17T15:01:01.834Z,0.11
2023-01-17T15:06:12.562Z,0.31
2023-01-17T15:11:30.375Z,-0.24
2023-01-17T15:16:38.406Z,-0.47
2023-01-17T15:21:51.467Z,-0.68
2023-01-17T15:26:54.798Z,-0.54
2023-01-17T15:31:59.011Z,0.28
2023-01-17T15:37:08.194Z,0.06
2023-01-17T15:42:31.662Z,0.13
2023-01-17T15:47:35.769Z,0.25
2023-01-17T15:52:51.131Z,-0.04
2023-01-17T15:57:53.510Z,0.20
2023-01-17T16:02:56.940Z,0.02
2023-01-17T16:08:06.374Z,0.32
2023-01-17T16:13:13.899Z,-0.23
2023-01-17T16:18:24.639Z,-0.28
2023-01-17T16:23:27.903Z,0.11
2023-01-17T16:28:30.292Z,-0.01
2023-01-17T16:33:32.601Z,0.35
2023-01-17T16:38:34.881Z,0.21
2023-01-17T16:43:37.246Z,0.12
2023-01-17T16:48:39.540Z,0.32
2023-01-17T16:53:41.838Z,-0.17
2023-01-17T16:58:44.321Z,0.13
2023-01-17T17:03:47.030Z,-0.13
2023-01-17T17:08:49.354Z,0.13
2023-01-17T17:13:52.185Z,-0.43
2023-01-17T17:18:59.791Z,0.32
2023-01-17T17:24:02.190Z,0.20
2023-01-17T17:29:06.074Z,-0.18
2023-01-17T17:34:12.097Z,0.20
2023-01-17T17:39:17.607Z,0.30
2023-01-17T17:44:19.987Z,-0.07
2023-01-17T17:49:23.067Z,0.18
2023-01-17T17:54:27.659Z,-0.14
2023-01-17T17:59:48.039Z,0.01
2023-01-17T18:10:38.258Z,-0.79
2023-01-17T18:15:40.577Z,-1.40
2023-01-17T18:20:42.860Z,-0.04
2023-01-17T18:25:45.532Z,-0.43
2023-01-17T18:30:47.797Z,-0.44
2023-01-17T18:35:54.658Z,-0.35
2023-01-17T18:41:04.153Z,-0.35
2023-01-17T18:46:06.716Z,0.17
2023-01-17T18:51:13.427Z,0.03
2023-01-17T18:56:18.785Z,-0.20
2023-01-17T19:01:23.999Z,-0.33
2023-01-17T19:06:30.537Z,-0.36
2023-01-17T19:11:36.971Z,-0.30
2023-01-17T19:16:40.538Z,-0.17
2023-01-17T19:21:42.993Z,-0.44
2023-01-17T19:26:46.024Z,-0.18
2023-01-17T19:31:48.412Z,-0.10
2023-01-17T19:36:52.680Z,-0.21
2023-01-17T19:41:54.882Z,-0.32
2023-01-17T19:46:57.203Z,-0.17
2023-01-17T19:52:03.792Z,-0.32
2023-01-17T19:57:06.191Z,-0.11
2023-01-17T20:02:09.880Z,-0.48
2023-01-17T20:07:12.482Z,-0.29
2023-01-17T20:12:14.871Z,-0.21
2023-01-17T20:17:17.150Z,-0.52
2023-01-17T20:22:19.624Z,-1.06
2023-01-17T20:27:26.757Z,-0.66
2023-01-17T20:32:29.000Z,-0.79
2023-01-17T20:37:31.363Z,-0.80
2023-01-17T20:42:36.761Z,-0.49
2023-01-17T20:47:39.051Z,-0.81
2023-01-17T20:52:41.338Z,-0.39
2023-01-17T20:57:43.532Z,-0.22
2023-01-17T21:02:45.875Z,-0.56
2023-01-17T21:07:48.314Z,-0.55
2023-01-17T21:12:50.617Z,-0.43
2023-01-17T21:17:52.983Z,-1.15
2023-01-17T21:22:55.206Z,-0.55
2023-01-17T21:27:57.735Z,-0.53
2023-01-17T21:33:00.577Z,-0.46
2023-01-17T21:38:02.888Z,-0.41
2023-01-17T21:43:05.088Z,-0.60
2023-01-17T21:48:08.436Z,-0.42
2023-01-17T21:53:10.687Z,-0.50
2023-01-17T21:58:35.927Z,-0.29
2023-01-17T22:03:38.348Z,-0.52
2023-01-17T22:08:41.127Z,-0.79
2023-01-17T22:13:44.572Z,-0.77
2023-01-17T22:18:47.300Z,-0.49
2023-01-17T22:23:52.452Z,-0.80
2023-01-17T22:28:55.165Z,-0.44
2023-01-17T22:33:59.894Z,-0.58
2023-01-17T22:39:02.202Z,-0.81
2023-01-17T22:44:05.743Z,-0.88
2023-01-17T22:49:08.702Z,-0.79
2023-01-17T22:54:11.729Z,-0.87
2023-01-17T22:59:14.009Z,-0.67
2023-01-17T23:04:18.895Z,-0.61
2023-01-17T23:09:21.173Z,-0.49
2023-01-17T23:14:24.786Z,-0.69
2023-01-17T23:19:29.169Z,-0.62
2023-01-17T23:24:31.433Z,-0.59
2023-01-17T23:29:33.638Z,-0.75
2023-01-17T23:34:35.891Z,-0.93
2023-01-17T23:39:38.060Z,-0.54
2023-01-17T23:44:40.260Z,-0.73
2023-01-17T23:49:43.755Z,-1.04
2023-01-17T23:54:45.912Z,-0.98
2023-01-17T23:59:48.136Z,-1.02
